Time;durP1;ratioP1;P1;durP2;ratioP2;P2;SDS_P1;SDS_P2;PMS_P1;PMS_P2;Temp;Humidity;BMP_temperature;BMP_pressure;BME280_temperature;BME280_humidity;BME280_pressure;Samples;Min_cycle;Max_cycle;Signal;HPM_P1;HPM_P2
2022/10/18 00:01:24;;;;;;;;;;;20.20;74.00;;;;;;5052807;28;20431;-62
2022/10/18 00:03:49;;;;;;;;;;;20.20;74.10;;;;;;5053155;28;19925;-61
2022/10/18 00:06:14;;;;;;;;;;;20.20;74.00;;;;;;5052433;28;20012;-61
2022/10/18 00:08:40;;;;;;;;;;;20.20;74.00;;;;;;5053092;28;19931;-61
2022/10/18 00:11:05;;;;;;;;;;;20.20;74.00;;;;;;5052797;28;19978;-61
2022/10/18 00:13:31;;;;;;;;;;;20.20;74.00;;;;;;5051965;28;19928;-62
2022/10/18 00:15:58;;;;;;;;;;;20.10;73.90;;;;;;5053192;28;19951;-61
2022/10/18 00:18:24;;;;;;;;;;;20.20;74.00;;;;;;5052686;28;20388;-61
2022/10/18 00:20:56;;;;;;;;;;;20.20;74.00;;;;;;5052209;28;19932;-61
2022/10/18 00:23:21;;;;;;;;;;;20.10;74.00;;;;;;5052483;28;20397;-61
2022/10/18 00:25:47;;;;;;;;;;;20.10;73.90;;;;;;5052207;28;19962;-61
2022/10/18 00:28:13;;;;;;;;;;;20.10;73.90;;;;;;5034404;28;19932;-62
2022/10/18 00:30:38;;;;;;;;;;;20.20;73.90;;;;;;5052936;28;19921;-61
2022/10/18 00:33:04;;;;;;;;;;;20.10;73.90;;;;;;5051963;28;20351;-61
2022/10/18 00:35:29;;;;;;;;;;;20.10;73.90;;;;;;5052647;28;19925;-61
2022/10/18 00:37:55;;;;;;;;;;;20.10;73.90;;;;;;5052547;28;19932;-61
2022/10/18 00:40:20;;;;;;;;;;;20.10;73.90;;;;;;5051813;28;20442;-61
2022/10/18 00:42:46;;;;;;;;;;;20.10;73.90;;;;;;5052624;28;19925;-61
2022/10/18 00:45:13;;;;;;;;;;;20.10;73.90;;;;;;5051251;28;20427;-61
2022/10/18 00:47:39;;;;;;;;;;;20.10;73.80;;;;;;5033958;28;20380;-61
2022/10/18 00:50:04;;;;;;;;;;;20.10;73.90;;;;;;5034731;28;19931;-61
2022/10/18 00:52:30;;;;;;;;;;;20.10;73.90;;;;;;5052303;28;19987;-61
2022/10/18 00:54:55;;;;;;;;;;;20.10;73.90;;;;;;5051680;28;19924;-61
2022/10/18 00:57:21;;;;;;;;;;;20.10;73.80;;;;;;5052224;28;19929;-61
2022/10/18 00:59:46;;;;;;;;;;;20.10;73.80;;;;;;5052293;28;19933;-61
2022/10/18 01:02:13;;;;;;;;;;;20.10;73.90;;;;;;5051120;28;19936;-61
2022/10/18 01:04:39;;;;;;;;;;;20.10;73.80;;;;;;5067903;28;19925;-61
2022/10/18 01:07:23;;;;;;;;;;;20.10;73.80;;;;;;5052580;28;19932;-62
2022/10/18 01:10:04;;;;;;;;;;;20.10;73.80;;;;;;5051349;28;20403;-61
2022/10/18 01:12:48;;;;;;;;;;;20.10;73.80;;;;;;5051577;28;20384;-62
2022/10/18 01:15:30;;;;;;;;;;;20.10;73.80;;;;;;5051348;28;19924;-62
2022/10/18 01:18:07;;;;;;;;;;;20.10;73.80;;;;;;5067825;28;19971;-61
2022/10/18 01:20:45;;;;;;;;;;;20.00;73.70;;;;;;5067809;28;20007;-62
2022/10/18 01:23:23;;;;;;;;;;;20.00;73.80;;;;;;5051091;28;19968;-61
2022/10/18 01:25:48;;;;;;;;;;;20.10;73.80;;;;;;5052045;28;19928;-61
2022/10/18 01:28:18;;;;;;;;;;;20.00;73.70;;;;;;5051681;28;20288;-61
2022/10/18 01:30:56;;;;;;;;;;;20.00;73.80;;;;;;5066790;28;19924;-61
2022/10/18 01:33:41;;;;;;;;;;;20.00;73.60;;;;;;5067483;28;19928;-61
2022/10/18 01:36:10;;;;;;;;;;;20.00;73.70;;;;;;5066352;28;19944;-62
2022/10/18 01:38:35;;;;;;;;;;;20.00;73.70;;;;;;5052081;28;19932;-62
2022/10/18 01:41:01;;;;;;;;;;;20.00;73.70;;;;;;5052118;28;19971;-62
2022/10/18 01:43:26;;;;;;;;;;;20.00;73.70;;;;;;5066389;28;19939;-62
2022/10/18 01:45:52;;;;;;;;;;;20.00;73.70;;;;;;5067444;28;19932;-62
2022/10/18 01:48:17;;;;;;;;;;;20.00;73.70;;;;;;5067025;28;19928;-61
2022/10/18 01:50:43;;;;;;;;;;;20.00;73.70;;;;;;5066722;28;19975;-61
2022/10/18 01:53:23;;;;;;;;;;;20.00;73.70;;;;;;5051203;28;19925;-62
2022/10/18 01:55:54;;;;;;;;;;;20.00;73.70;;;;;;5051835;28;19924;-62
2022/10/18 01:58:21;;;;;;;;;;;20.00;73.70;;;;;;5070062;28;19929;-62
2022/10/18 02:00:47;;;;;;;;;;;20.00;73.70;;;;;;5064903;28;20391;-61
2022/10/18 02:03:18;;;;;;;;;;;20.00;73.70;;;;;;5051028;28;20021;-61
2022/10/18 02:05:55;;;;;;;;;;;20.00;73.70;;;;;;5049576;28;19925;-62
2022/10/18 02:08:21;;;;;;;;;;;20.00;73.60;;;;;;5050648;28;19931;-62
2022/10/18 02:11:02;;;;;;;;;;;20.00;73.70;;;;;;5035199;28;19929;-61
2022/10/18 02:13:29;;;;;;;;;;;20.00;73.60;;;;;;5050126;28;20023;-62
2022/10/18 02:15:56;;;;;;;;;;;20.00;73.60;;;;;;5051014;28;20356;-62
2022/10/18 02:18:23;;;;;;;;;;;20.00;73.60;;;;;;5049818;28;19933;-61
2022/10/18 02:20:48;;;;;;;;;;;20.00;73.60;;;;;;5050657;28;19925;-61
2022/10/18 02:23:14;;;;;;;;;;;19.90;73.60;;;;;;5050146;28;20028;-61
2022/10/18 02:25:39;;;;;;;;;;;20.00;73.60;;;;;;5050052;28;19933;-62
2022/10/18 02:28:05;;;;;;;;;;;19.90;73.60;;;;;;5035408;28;19946;-62
2022/10/18 02:30:33;;;;;;;;;;;19.90;73.60;;;;;;5034948;28;19932;-62
2022/10/18 02:33:01;;;;;;;;;;;20.00;73.60;;;;;;5049678;28;20020;-62
2022/10/18 02:35:34;;;;;;;;;;;19.90;73.60;;;;;;5034701;28;19936;-61
2022/10/18 02:37:59;;;;;;;;;;;19.90;73.60;;;;;;5050043;28;20011;-61
2022/10/18 02:40:25;;;;;;;;;;;19.90;73.50;;;;;;5049546;28;19976;-62
2022/10/18 02:42:54;;;;;;;;;;;19.90;73.50;;;;;;5035165;28;19979;-61
2022/10/18 02:45:19;;;;;;;;;;;19.90;73.50;;;;;;5034667;28;20019;-61
2022/10/18 02:47:45;;;;;;;;;;;19.90;73.50;;;;;;5049333;28;20023;-61
2022/10/18 02:50:10;;;;;;;;;;;19.90;73.50;;;;;;5034418;28;19971;-62
2022/10/18 02:52:36;;;;;;;;;;;19.90;73.50;;;;;;5034685;28;19925;-62
2022/10/18 02:55:01;;;;;;;;;;;19.90;73.50;;;;;;5034182;28;19932;-62
2022/10/18 02:57:27;;;;;;;;;;;19.90;73.50;;;;;;5034394;28;19960;-61
2022/10/18 02:59:52;;;;;;;;;;;19.90;73.50;;;;;;5034522;28;19932;-61
2022/10/18 03:02:18;;;;;;;;;;;19.90;73.50;;;;;;5033582;28;20313;-62
2022/10/18 03:04:43;;;;;;;;;;;19.90;73.50;;;;;;5034471;28;19926;-62
2022/10/18 03:07:09;;;;;;;;;;;19.90;73.50;;;;;;5034317;28;20353;-62
2022/10/18 03:09:34;;;;;;;;;;;19.90;73.50;;;;;;5033117;28;19932;-62
2022/10/18 03:11:59;;;;;;;;;;;19.90;73.50;;;;;;5034230;28;20328;-62
2022/10/18 03:14:25;;;;;;;;;;;19.90;73.50;;;;;;5033266;28;19956;-62
2022/10/18 03:16:50;;;;;;;;;;;19.90;73.50;;;;;;5034549;28;20043;-62
2022/10/18 03:19:16;;;;;;;;;;;19.90;73.50;;;;;;5049410;28;19960;-62
2022/10/18 03:21:41;;;;;;;;;;;19.90;73.50;;;;;;5033153;28;20324;-62
2022/10/18 03:24:07;;;;;;;;;;;19.90;73.50;;;;;;5034056;28;20012;-62
2022/10/18 03:26:32;;;;;;;;;;;19.90;73.50;;;;;;5034025;28;20435;-62
2022/10/18 03:28:58;;;;;;;;;;;19.90;73.50;;;;;;5033319;28;19968;-62
2022/10/18 03:31:23;;;;;;;;;;;19.90;73.50;;;;;;5033462;28;19927;-61
2022/10/18 03:33:49;;;;;;;;;;;19.80;73.40;;;;;;5034122;28;19925;-61
2022/10/18 03:36:14;;;;;;;;;;;19.90;73.40;;;;;;5032869;28;20072;-62
2022/10/18 03:38:40;;;;;;;;;;;19.90;73.40;;;;;;5034076;28;19967;-62
2022/10/18 03:41:05;;;;;;;;;;;19.90;73.50;;;;;;5033878;28;20059;-62
2022/10/18 03:43:31;;;;;;;;;;;19.80;73.40;;;;;;5033050;28;19969;-62
2022/10/18 03:45:56;;;;;;;;;;;19.90;73.40;;;;;;5033828;28;19929;-62
2022/10/18 03:48:21;;;;;;;;;;;19.90;73.40;;;;;;5033516;28;20452;-62
2022/10/18 03:50:47;;;;;;;;;;;19.80;73.40;;;;;;5032735;28;19936;-61
2022/10/18 03:53:12;;;;;;;;;;;19.80;73.30;;;;;;5033610;28;19932;-62
2022/10/18 03:55:38;;;;;;;;;;;19.80;73.30;;;;;;5033553;28;19925;-62
2022/10/18 03:58:03;;;;;;;;;;;19.80;73.30;;;;;;5032821;28;20023;-61
2022/10/18 04:00:29;;;;;;;;;;;19.80;73.30;;;;;;5034907;28;19971;-63
2022/10/18 04:02:54;;;;;;;;;;;19.80;73.30;;;;;;5052207;28;20007;-62
2022/10/18 04:05:22;;;;;;;;;;;19.80;73.30;;;;;;5051345;28;19955;-62
2022/10/18 04:07:48;;;;;;;;;;;19.90;73.40;;;;;;5052679;28;20395;-62
2022/10/18 04:10:13;;;;;;;;;;;19.80;73.30;;;;;;5053124;28;19983;-63
2022/10/18 04:12:39;;;;;;;;;;;19.80;73.30;;;;;;5052406;28;20373;-62
2022/10/18 04:15:05;;;;;;;;;;;19.90;73.40;;;;;;5053101;28;19978;-62
2022/10/18 04:17:30;;;;;;;;;;;19.90;73.40;;;;;;5052999;28;19971;-62
2022/10/18 04:19:56;;;;;;;;;;;19.80;73.30;;;;;;5052226;28;19925;-62
2022/10/18 04:22:21;;;;;;;;;;;19.90;73.40;;;;;;5052877;28;19955;-63
2022/10/18 04:24:47;;;;;;;;;;;19.90;73.40;;;;;;5052352;28;20000;-62
2022/10/18 04:27:12;;;;;;;;;;;19.90;73.40;;;;;;5052496;28;19931;-62
2022/10/18 04:29:38;;;;;;;;;;;19.90;73.30;;;;;;5052840;28;19924;-62
2022/10/18 04:32:03;;;;;;;;;;;19.90;73.40;;;;;;5052181;28;20232;-62
2022/10/18 04:34:29;;;;;;;;;;;19.90;73.30;;;;;;5052291;28;20289;-62
2022/10/18 04:36:54;;;;;;;;;;;19.90;73.30;;;;;;5052662;28;19968;-62
2022/10/18 04:39:20;;;;;;;;;;;19.90;73.30;;;;;;5051954;28;19931;-62
2022/10/18 04:41:45;;;;;;;;;;;19.90;73.30;;;;;;5052774;28;20327;-62
2022/10/18 04:44:11;;;;;;;;;;;19.90;73.30;;;;;;5052172;28;19932;-62
2022/10/18 04:46:36;;;;;;;;;;;20.00;73.30;;;;;;5051714;28;19925;-62
2022/10/18 04:49:01;;;;;;;;;;;20.00;73.30;;;;;;5052477;28;19925;-61
2022/10/18 04:51:27;;;;;;;;;;;20.00;73.30;;;;;;5052273;28;20394;-62
2022/10/18 04:53:53;;;;;;;;;;;20.00;73.30;;;;;;5051806;28;19932;-63
2022/10/18 04:56:19;;;;;;;;;;;20.00;73.30;;;;;;5052432;28;20391;-62
2022/10/18 04:58:44;;;;;;;;;;;20.00;73.20;;;;;;5052356;28;20284;-62
2022/10/18 05:01:10;;;;;;;;;;;20.00;73.30;;;;;;5051002;28;19924;-62
2022/10/18 05:03:35;;;;;;;;;;;20.00;73.20;;;;;;5051983;28;19924;-62
2022/10/18 05:06:01;;;;;;;;;;;20.10;73.30;;;;;;5052612;28;20011;-63
2022/10/18 05:08:26;;;;;;;;;;;20.00;73.20;;;;;;5051505;28;20011;-62
2022/10/18 05:10:52;;;;;;;;;;;20.00;73.20;;;;;;5052385;28;20329;-61
2022/10/18 05:13:17;;;;;;;;;;;20.00;73.20;;;;;;5051893;28;19928;-62
2022/10/18 05:15:44;;;;;;;;;;;20.00;73.20;;;;;;5051398;28;19931;-62
2022/10/18 05:18:10;;;;;;;;;;;20.00;73.20;;;;;;5051760;28;19932;-61
2022/10/18 05:20:35;;;;;;;;;;;20.00;73.20;;;;;;5052307;28;19924;-62
2022/10/18 05:23:01;;;;;;;;;;;20.00;73.20;;;;;;5051601;28;20277;-61
2022/10/18 05:25:27;;;;;;;;;;;20.10;73.20;;;;;;5052054;28;19929;-62
2022/10/18 05:27:52;;;;;;;;;;;20.10;73.20;;;;;;5052386;28;20349;-62
2022/10/18 05:30:19;;;;;;;;;;;20.00;73.10;;;;;;5051238;28;19932;-62
2022/10/18 05:32:45;;;;;;;;;;;20.10;73.20;;;;;;5054910;28;19976;-62
2022/10/18 05:35:10;;;;;;;;;;;20.10;73.20;;;;;;5055183;28;20305;-62
2022/10/18 05:37:36;;;;;;;;;;;20.00;73.10;;;;;;5055555;28;19925;-62
2022/10/18 05:40:01;;;;;;;;;;;20.00;73.10;;;;;;5056208;28;19932;-62
2022/10/18 05:42:27;;;;;;;;;;;20.10;73.20;;;;;;5054784;28;20404;-60
2022/10/18 05:44:52;;;;;;;;;;;20.10;73.20;;;;;;5037837;28;19925;-62
2022/10/18 05:47:17;;;;;;;;;;;20.00;73.10;;;;;;5055640;28;19936;-62
2022/10/18 05:49:43;;;;;;;;;;;20.00;73.10;;;;;;5054862;28;19931;-62
2022/10/18 05:52:08;;;;;;;;;;;20.10;73.20;;;;;;5055656;28;20284;-62
2022/10/18 05:54:34;;;;;;;;;;;20.10;73.40;;;;;;5055955;28;19925;-62
2022/10/18 05:56:59;;;;;;;;;;;20.10;73.40;;;;;;5055273;28;19979;-61
2022/10/18 05:59:25;;;;;;;;;;;20.10;73.50;;;;;;5055344;28;19928;-62
2022/10/18 06:01:50;;;;;;;;;;;20.10;73.50;;;;;;5055361;28;19987;-62
2022/10/18 06:04:16;;;;;;;;;;;20.10;73.50;;;;;;5054144;28;20016;-62
2022/10/18 06:06:42;;;;;;;;;;;20.10;73.50;;;;;;5055777;28;19959;-62
2022/10/18 06:09:07;;;;;;;;;;;20.10;73.50;;;;;;5055093;28;20441;-63
2022/10/18 06:11:33;;;;;;;;;;;20.10;73.50;;;;;;5054551;28;19925;-63
2022/10/18 06:13:59;;;;;;;;;;;20.10;73.50;;;;;;5054838;28;20020;-63
2022/10/18 06:16:24;;;;;;;;;;;20.10;73.60;;;;;;5054588;28;19925;-62
2022/10/18 06:18:50;;;;;;;;;;;20.10;73.50;;;;;;5054288;28;19977;-62
2022/10/18 06:21:16;;;;;;;;;;;20.10;73.50;;;;;;5054961;28;19932;-63
2022/10/18 06:23:42;;;;;;;;;;;20.10;73.50;;;;;;5054915;28;20012;-62
2022/10/18 06:26:08;;;;;;;;;;;20.10;73.60;;;;;;5054292;28;20382;-62
2022/10/18 06:28:34;;;;;;;;;;;20.10;73.60;;;;;;5070332;28;19975;-63
2022/10/18 06:31:00;;;;;;;;;;;20.10;73.60;;;;;;5054899;28;19971;-62
2022/10/18 06:33:25;;;;;;;;;;;20.10;73.70;;;;;;5053872;28;19971;-61
2022/10/18 06:35:57;;;;;;;;;;;20.10;73.70;;;;;;5055036;28;19932;-62
2022/10/18 06:38:22;;;;;;;;;;;20.10;73.70;;;;;;5053839;28;19938;-62
2022/10/18 06:40:48;;;;;;;;;;;20.10;73.70;;;;;;5054952;28;19925;-62
2022/10/18 06:43:13;;;;;;;;;;;20.10;73.80;;;;;;5053611;28;19925;-62
2022/10/18 06:45:39;;;;;;;;;;;20.20;73.80;;;;;;5054135;28;19925;-62
2022/10/18 06:48:04;;;;;;;;;;;20.10;73.80;;;;;;5054689;28;19924;-62
2022/10/18 06:50:30;;;;;;;;;;;20.20;73.80;;;;;;5054546;28;19925;-62
2022/10/18 06:52:55;;;;;;;;;;;20.20;73.80;;;;;;5054161;28;19990;-62
2022/10/18 06:55:21;;;;;;;;;;;20.20;73.80;;;;;;5054526;28;19929;-62
2022/10/18 06:57:46;;;;;;;;;;;20.20;73.80;;;;;;5054615;28;19972;-61
2022/10/18 07:00:12;;;;;;;;;;;20.20;73.80;;;;;;5053511;28;20372;-62
2022/10/18 07:02:40;;;;;;;;;;;20.20;73.80;;;;;;5054575;28;19935;-63
2022/10/18 07:05:06;;;;;;;;;;;20.20;73.90;;;;;;5054463;28;19993;-61
2022/10/18 07:07:31;;;;;;;;;;;20.20;73.80;;;;;;5035826;28;19960;-62
2022/10/18 07:09:57;;;;;;;;;;;20.20;73.80;;;;;;5054289;28;19987;-60
2022/10/18 07:12:22;;;;;;;;;;;20.20;73.80;;;;;;5054019;28;19931;-62
2022/10/18 07:14:48;;;;;;;;;;;20.20;73.80;;;;;;5053643;28;20436;-61
2022/10/18 07:17:13;;;;;;;;;;;20.20;73.90;;;;;;5053930;28;19925;-62
2022/10/18 07:19:38;;;;;;;;;;;20.20;73.90;;;;;;5054354;28;19929;-61
2022/10/18 07:22:04;;;;;;;;;;;20.20;73.90;;;;;;5053664;28;20435;-61
2022/10/18 07:24:29;;;;;;;;;;;20.20;74.00;;;;;;5053065;28;20303;-61
2022/10/18 07:26:55;;;;;;;;;;;20.20;74.00;;;;;;5053990;28;19925;-61
2022/10/18 07:29:20;;;;;;;;;;;20.20;74.00;;;;;;5052979;28;19932;-61
2022/10/18 07:31:46;;;;;;;;;;;20.20;74.00;;;;;;5054058;28;19928;-62
2022/10/18 07:34:12;;;;;;;;;;;20.20;74.00;;;;;;5053854;28;19925;-61
2022/10/18 07:36:37;;;;;;;;;;;20.20;74.00;;;;;;5052707;28;19976;-61
2022/10/18 07:39:03;;;;;;;;;;;20.20;74.10;;;;;;5053898;28;20295;-61
2022/10/18 07:41:30;;;;;;;;;;;20.20;74.10;;;;;;5053044;28;20090;-61
2022/10/18 07:43:56;;;;;;;;;;;20.30;74.70;;;;;;5052822;28;20316;-61
2022/10/18 07:46:21;;;;;;;;;;;20.20;74.10;;;;;;5052935;28;19936;-62
2022/10/18 07:48:47;;;;;;;;;;;20.20;74.10;;;;;;5052901;28;19932;-61
2022/10/18 07:51:12;;;;;;;;;;;20.30;74.10;;;;;;5053350;28;19924;-61
2022/10/18 07:53:38;;;;;;;;;;;20.30;74.10;;;;;;5053451;28;19968;-61
2022/10/18 07:56:10;;;;;;;;;;;20.30;74.20;;;;;;5052619;28;19928;-61
2022/10/18 07:58:35;;;;;;;;;;;20.20;74.20;;;;;;5053465;28;19925;-61
2022/10/18 08:01:04;;;;;;;;;;;20.30;74.20;;;;;;5053150;28;19931;-62
2022/10/18 08:03:30;;;;;;;;;;;20.30;74.20;;;;;;5052146;28;19925;-61
2022/10/18 08:05:55;;;;;;;;;;;20.30;74.20;;;;;;5053381;28;19932;-62
2022/10/18 08:08:21;;;;;;;;;;;20.30;74.20;;;;;;5053263;28;19979;-62
2022/10/18 08:10:47;;;;;;;;;;;20.30;74.10;;;;;;5052447;28;19925;-62
2022/10/18 08:13:12;;;;;;;;;;;20.30;74.10;;;;;;5052670;28;19925;-62
2022/10/18 08:15:38;;;;;;;;;;;20.30;74.10;;;;;;5052950;28;19935;-62
2022/10/18 08:18:03;;;;;;;;;;;20.30;74.10;;;;;;5052399;28;19925;-62
2022/10/18 08:20:30;;;;;;;;;;;20.30;74.10;;;;;;5052224;28;20364;-61
2022/10/18 08:22:56;;;;;;;;;;;20.30;74.10;;;;;;5052670;28;20015;-62
2022/10/18 08:25:21;;;;;;;;;;;20.30;74.10;;;;;;5051888;28;20078;-61
2022/10/18 08:27:47;;;;;;;;;;;20.30;74.20;;;;;;5052786;28;19928;-62
2022/10/18 08:30:13;;;;;;;;;;;20.30;74.20;;;;;;5052645;28;20022;-61
2022/10/18 08:32:38;;;;;;;;;;;20.30;74.30;;;;;;5052165;28;19935;-61
2022/10/18 08:35:04;;;;;;;;;;;20.30;74.30;;;;;;5053016;28;19925;-61
2022/10/18 08:37:30;;;;;;;;;;;20.40;74.40;;;;;;5051436;28;20261;-61
2022/10/18 08:39:55;;;;;;;;;;;20.30;74.30;;;;;;5051966;28;20022;-61
2022/10/18 08:42:23;;;;;;;;;;;20.30;74.40;;;;;;5052242;28;19925;-62
2022/10/18 08:44:49;;;;;;;;;;;20.40;74.40;;;;;;5068122;28;19924;-62
2022/10/18 08:47:35;;;;;;;;;;;20.30;74.30;;;;;;5051602;28;19932;-62
2022/10/18 08:50:10;;;;;;;;;;;20.40;74.30;;;;;;5051983;28;19928;-62
2022/10/18 08:52:44;;;;;;;;;;;20.40;74.30;;;;;;5067015;28;20300;-62
2022/10/18 08:55:22;;;;;;;;;;;20.40;74.30;;;;;;5067777;28;19980;-62
2022/10/18 08:57:48;;;;;;;;;;;20.40;74.20;;;;;;5052781;28;20538;-62
2022/10/18 09:00:14;;;;;;;;;;;20.30;73.90;;;;;;5050395;28;19925;-62
2022/10/18 09:02:59;;;;;;;;;;;20.30;73.80;;;;;;5034980;28;20303;-62
2022/10/18 09:05:35;;;;;;;;;;;20.30;73.70;;;;;;5052339;28;19936;-62
2022/10/18 09:08:15;;;;;;;;;;;20.30;73.40;;;;;;5051609;28;19924;-62
2022/10/18 09:10:42;;;;;;;;;;;20.30;73.30;;;;;;5052888;28;19924;-62
2022/10/18 09:13:11;;;;;;;;;;;20.30;73.50;;;;;;5051329;28;20410;-62
2022/10/18 09:15:50;;;;;;;;;;;20.30;73.80;;;;;;5052757;28;19925;-62
2022/10/18 09:18:25;;;;;;;;;;;20.30;73.90;;;;;;5068078;28;19986;-66
2022/10/18 09:20:53;;;;;;;;;;;20.30;73.80;;;;;;5051786;28;19925;-67
2022/10/18 09:23:19;;;;;;;;;;;20.30;73.90;;;;;;5053199;28;19947;-65
2022/10/18 09:25:54;;;;;;;;;;;20.30;73.80;;;;;;5054856;28;19928;-65
2022/10/18 09:28:25;;;;;;;;;;;20.30;73.80;;;;;;5051611;28;19928;-66
2022/10/18 09:30:59;;;;;;;;;;;20.30;73.80;;;;;;5052631;28;19925;-66
2022/10/18 09:33:43;;;;;;;;;;;20.30;73.90;;;;;;5050481;28;19932;-67
2022/10/18 09:36:14;;;;;;;;;;;20.30;74.00;;;;;;5041412;28;20396;-67
2022/10/18 09:38:44;;;;;;;;;;;20.30;74.00;;;;;;5045388;28;19924;-66
2022/10/18 09:41:30;;;;;;;;;;;20.40;74.10;;;;;;5043369;28;19931;-67
2022/10/18 09:44:00;;;;;;;;;;;20.40;74.10;;;;;;5058603;28;19952;-66
2022/10/18 09:46:26;;;;;;;;;;;20.40;74.10;;;;;;5065823;28;20427;-66
2022/10/18 09:48:53;;;;;;;;;;;20.40;74.10;;;;;;5050606;28;20016;-65
2022/10/18 09:51:23;;;;;;;;;;;20.40;74.10;;;;;;5066725;28;20301;-67
2022/10/18 09:53:48;;;;;;;;;;;20.40;74.10;;;;;;5067161;28;19974;-67
2022/10/18 09:56:15;;;;;;;;;;;20.40;74.10;;;;;;5051076;28;19921;-67
2022/10/18 09:58:45;;;;;;;;;;;20.40;74.20;;;;;;5067303;28;19925;-67
2022/10/18 10:01:29;;;;;;;;;;;20.40;74.10;;;;;;5051426;28;19925;-68
2022/10/18 10:03:55;;;;;;;;;;;20.40;74.20;;;;;;5066652;28;19925;-68
2022/10/18 10:06:30;;;;;;;;;;;20.40;74.20;;;;;;5045187;28;19925;-67
2022/10/18 10:08:59;;;;;;;;;;;20.40;74.20;;;;;;5044498;28;19925;-67
2022/10/18 10:11:29;;;;;;;;;;;20.40;74.20;;;;;;5046912;28;20849;-67
2022/10/18 10:14:07;;;;;;;;;;;20.40;74.10;;;;;;5031449;28;19979;-66
2022/10/18 10:16:33;;;;;;;;;;;20.40;74.10;;;;;;5047638;28;19924;-66
2022/10/18 10:18:58;;;;;;;;;;;20.50;74.20;;;;;;5053920;28;19936;-66
2022/10/18 10:21:24;;;;;;;;;;;20.50;74.30;;;;;;5054638;28;20284;-67
2022/10/18 10:23:53;;;;;;;;;;;20.50;74.40;;;;;;5054154;28;19936;-67
2022/10/18 10:26:32;;;;;;;;;;;20.50;74.40;;;;;;5036982;28;19974;-67
2022/10/18 10:28:57;;;;;;;;;;;20.50;74.30;;;;;;5037562;28;19931;-68
2022/10/18 10:31:23;;;;;;;;;;;20.50;74.30;;;;;;5036250;28;19924;-67
2022/10/18 10:34:03;;;;;;;;;;;20.50;74.20;;;;;;5055077;28;19935;-69
2022/10/18 10:36:29;;;;;;;;;;;20.40;74.10;;;;;;5054792;28;19983;-67
2022/10/18 10:39:21;;;;;;;;;;;20.40;74.00;;;;;;5054436;28;19933;-67
2022/10/18 10:41:47;;;;;;;;;;;20.40;75.20;;;;;;5051331;28;19925;-67
2022/10/18 10:44:13;;;;;;;;;;;20.40;75.80;;;;;;5070009;28;19983;-67
2022/10/18 10:46:38;;;;;;;;;;;20.40;75.20;;;;;;5068649;28;19929;-67
2022/10/18 10:49:04;;;;;;;;;;;20.40;74.70;;;;;;5054234;28;19924;-67
2022/10/18 10:51:35;;;;;;;;;;;20.40;74.70;;;;;;5054387;28;20432;-67
2022/10/18 10:54:14;;;;;;;;;;;20.40;74.70;;;;;;5054294;28;20407;-67
2022/10/18 10:56:52;;;;;;;;;;;20.40;74.60;;;;;;5054415;28;20392;-67
2022/10/18 10:59:17;;;;;;;;;;;20.40;74.60;;;;;;5053280;28;20230;-67
2022/10/18 11:01:44;;;;;;;;;;;20.40;74.60;;;;;;5054314;28;19932;-67
2022/10/18 11:04:29;;;;;;;;;;;20.40;74.60;;;;;;5054096;28;20333;-67
2022/10/18 11:07:13;;;;;;;;;;;20.40;74.60;;;;;;5052505;28;19928;-67
2022/10/18 11:09:58;;;;;;;;;;;20.40;74.60;;;;;;5054596;28;19929;-67
2022/10/18 11:12:32;;;;;;;;;;;20.40;74.60;;;;;;5054147;28;19925;-67
2022/10/18 11:15:17;;;;;;;;;;;20.40;74.70;;;;;;5068511;28;19928;-66
2022/10/18 11:18:02;;;;;;;;;;;20.40;74.60;;;;;;5053842;28;19928;-66
2022/10/18 11:20:29;;;;;;;;;;;20.40;74.60;;;;;;5053423;28;19925;-66
2022/10/18 11:22:57;;;;;;;;;;;20.40;74.50;;;;;;5069705;28;19928;-66
2022/10/18 11:25:24;;;;;;;;;;;20.30;74.40;;;;;;5069255;28;19976;-66
2022/10/18 11:27:59;;;;;;;;;;;20.30;74.40;;;;;;5053438;28;19928;-66
2022/10/18 11:30:46;;;;;;;;;;;20.30;74.30;;;;;;5053090;28;19932;-66
2022/10/18 11:33:21;;;;;;;;;;;20.30;74.30;;;;;;5069048;28;19925;-66
2022/10/18 11:35:49;;;;;;;;;;;20.30;74.30;;;;;;5053212;28;19924;-66
2022/10/18 11:38:15;;;;;;;;;;;20.30;74.30;;;;;;5053210;28;19925;-66
2022/10/18 11:40:43;;;;;;;;;;;20.30;74.20;;;;;;5053912;28;20399;-66
2022/10/18 11:43:12;;;;;;;;;;;20.30;74.10;;;;;;5052612;28;20016;-66
2022/10/18 11:45:45;;;;;;;;;;;20.30;74.10;;;;;;5068409;28;20140;-66
2022/10/18 11:48:11;;;;;;;;;;;20.30;74.00;;;;;;5068162;28;19951;-67
2022/10/18 11:50:39;;;;;;;;;;;20.30;74.00;;;;;;5053855;28;20300;-67
2022/10/18 11:53:08;;;;;;;;;;;20.40;74.30;;;;;;5068960;28;20020;-67
2022/10/18 11:55:42;;;;;;;;;;;20.30;74.30;;;;;;5052906;28;19925;-67
2022/10/18 11:58:17;;;;;;;;;;;20.30;74.40;;;;;;5053039;28;19978;-67
2022/10/18 12:00:47;;;;;;;;;;;20.30;74.40;;;;;;5068729;28;19931;-67
2022/10/18 12:03:32;;;;;;;;;;;20.40;74.40;;;;;;5067547;28;20296;-67
2022/10/18 12:06:00;;;;;;;;;;;20.30;74.30;;;;;;5053372;28;19925;-67
2022/10/18 12:08:28;;;;;;;;;;;20.30;74.30;;;;;;5068295;28;20033;-66
2022/10/18 12:10:56;;;;;;;;;;;20.40;74.30;;;;;;5067899;28;19925;-66
2022/10/18 12:13:43;;;;;;;;;;;20.30;74.20;;;;;;5067665;28;20019;-66
2022/10/18 12:16:08;;;;;;;;;;;20.30;74.30;;;;;;5051965;28;19932;-66
2022/10/18 12:18:34;;;;;;;;;;;20.30;74.20;;;;;;5053204;28;19924;-66
2022/10/18 12:21:00;;;;;;;;;;;20.30;74.20;;;;;;5052961;28;19925;-66
2022/10/18 12:23:34;;;;;;;;;;;20.30;74.20;;;;;;5067070;28;19936;-66
2022/10/18 12:26:00;;;;;;;;;;;20.30;74.20;;;;;;5068536;28;20376;-66
2022/10/18 12:28:45;;;;;;;;;;;20.30;74.30;;;;;;5052891;28;19938;-66
2022/10/18 12:31:18;;;;;;;;;;;20.30;74.20;;;;;;5051978;28;19925;-66
2022/10/18 12:33:45;;;;;;;;;;;20.40;74.20;;;;;;5068486;28;19929;-67
2022/10/18 12:36:13;;;;;;;;;;;20.30;74.10;;;;;;5068120;28;19947;-66
2022/10/18 12:38:42;;;;;;;;;;;20.30;74.10;;;;;;5051892;28;19960;-66
2022/10/18 12:41:27;;;;;;;;;;;20.30;74.10;;;;;;5067191;28;19924;-66
2022/10/18 12:43:53;;;;;;;;;;;20.30;74.10;;;;;;5067929;28;19925;-67
2022/10/18 12:46:19;;;;;;;;;;;20.40;74.10;;;;;;5067222;28;19929;-66
2022/10/18 12:48:46;;;;;;;;;;;20.30;74.00;;;;;;5068155;28;19927;-66
2022/10/18 12:51:14;;;;;;;;;;;20.40;74.30;;;;;;5051230;28;19925;-66
2022/10/18 12:53:41;;;;;;;;;;;20.40;73.80;;;;;;5067982;28;20011;-65
2022/10/18 12:56:25;;;;;;;;;;;20.40;73.80;;;;;;5051789;28;19970;-66
2022/10/18 12:58:50;;;;;;;;;;;20.40;73.80;;;;;;5051817;28;19932;-66
2022/10/18 13:01:16;;;;;;;;;;;20.40;73.70;;;;;;5051784;28;19925;-66
2022/10/18 13:03:51;;;;;;;;;;;20.40;73.60;;;;;;5052403;28;19971;-66
2022/10/18 13:06:17;;;;;;;;;;;20.40;73.60;;;;;;5051610;28;19925;-65
2022/10/18 13:08:44;;;;;;;;;;;20.40;73.50;;;;;;5067980;28;20292;-66
2022/10/18 13:11:10;;;;;;;;;;;20.50;73.50;;;;;;5051778;28;20354;-66
2022/10/18 13:13:38;;;;;;;;;;;20.50;73.70;;;;;;5051723;28;20372;-66
2022/10/18 13:16:06;;;;;;;;;;;20.50;73.60;;;;;;5052146;28;19978;-67
2022/10/18 13:18:36;;;;;;;;;;;20.50;73.60;;;;;;5051656;28;19924;-66
2022/10/18 13:21:08;;;;;;;;;;;20.60;73.50;;;;;;5066395;28;20376;-65
2022/10/18 13:23:33;;;;;;;;;;;20.60;73.60;;;;;;5049140;28;20373;-65
2022/10/18 13:26:15;;;;;;;;;;;20.60;73.50;;;;;;5051473;28;19971;-66
2022/10/18 13:28:40;;;;;;;;;;;20.70;73.50;;;;;;5050094;28;20326;-66
2022/10/18 13:31:19;;;;;;;;;;;20.70;73.40;;;;;;5051835;28;20277;-67
2022/10/18 13:33:45;;;;;;;;;;;20.70;73.30;;;;;;5050753;28;19925;-65
2022/10/18 13:36:16;;;;;;;;;;;20.70;73.30;;;;;;5051570;28;20024;-65
2022/10/18 13:38:57;;;;;;;;;;;20.70;73.00;;;;;;5052106;28;19924;-65
2022/10/18 13:41:23;;;;;;;;;;;20.70;72.80;;;;;;5050971;28;19973;-65
2022/10/18 13:43:51;;;;;;;;;;;20.70;73.10;;;;;;5051950;28;20097;-65
2022/10/18 13:46:32;;;;;;;;;;;20.70;72.90;;;;;;5051815;28;19983;-66
2022/10/18 13:49:16;;;;;;;;;;;20.80;72.90;;;;;;5051412;28;20007;-65
2022/10/18 13:51:41;;;;;;;;;;;20.80;72.60;;;;;;5052036;28;19931;-65
2022/10/18 13:54:25;;;;;;;;;;;20.80;72.70;;;;;;5055059;28;19925;-65
2022/10/18 13:56:51;;;;;;;;;;;20.90;72.60;;;;;;5055776;28;19925;-65
2022/10/18 13:59:23;;;;;;;;;;;21.00;72.70;;;;;;5055525;28;20023;-66
2022/10/18 14:01:55;;;;;;;;;;;21.00;72.50;;;;;;5054644;28;19925;-65
2022/10/18 14:04:30;;;;;;;;;;;21.00;72.50;;;;;;5070816;28;19932;-65
2022/10/18 14:06:57;;;;;;;;;;;21.00;72.50;;;;;;5070943;28;20380;-66
2022/10/18 14:09:23;;;;;;;;;;;21.00;72.30;;;;;;5069749;28;20011;-66
2022/10/18 14:11:50;;;;;;;;;;;21.00;72.30;;;;;;5055514;28;20303;-66
2022/10/18 14:14:21;;;;;;;;;;;21.00;72.30;;;;;;5054973;28;20365;-66
2022/10/18 14:16:56;;;;;;;;;;;21.10;72.30;;;;;;5053402;28;19956;-65
2022/10/18 14:19:27;;;;;;;;;;;21.10;72.20;;;;;;5055021;28;20058;-65
2022/10/18 14:22:05;;;;;;;;;;;21.10;72.00;;;;;;5055377;28;20372;-65
2022/10/18 14:24:30;;;;;;;;;;;21.10;72.10;;;;;;5036625;28;20303;-66